createdAt,value
2019-02-17T00:00:42.259Z,-1.40
2019-02-17T00:03:25.939Z,-1.40
2019-02-17T00:06:08.218Z,-1.50
2019-02-17T00:08:50.362Z,-1.40
2019-02-17T00:11:32.169Z,-1.50
2019-02-17T00:14:14.062Z,-1.60
2019-02-17T00:16:56.111Z,-1.60
2019-02-17T00:19:38.193Z,-1.70
2019-02-17T00:22:08.554Z,-1.70
2019-02-17T00:24:59.350Z,-1.70
2019-02-17T00:27:42.933Z,-1.70
2019-02-17T00:30:25.354Z,-1.80
2019-02-17T00:33:07.531Z,-1.80
2019-02-17T00:35:49.260Z,-1.80
2019-02-17T00:38:30.991Z,-1.80
2019-02-17T00:41:12.835Z,-1.80
2019-02-17T00:43:54.778Z,-1.90
2019-02-17T00:46:36.371Z,-2.00
2019-02-17T00:49:18.026Z,-2.00
2019-02-17T00:52:00.082Z,-2.10
2019-02-17T00:54:41.753Z,-2.10
2019-02-17T00:57:24.058Z,-2.10
2019-02-17T01:00:05.923Z,-2.10
2019-02-17T01:02:47.634Z,-2.10
2019-02-17T01:05:29.778Z,-2.10
2019-02-17T01:08:12.122Z,-2.20
2019-02-17T01:10:54.383Z,-2.20
2019-02-17T01:13:36.463Z,-2.20
2019-02-17T01:16:18.131Z,-2.30
2019-02-17T01:18:59.962Z,-2.30
2019-02-17T01:21:41.966Z,-2.40
2019-02-17T01:24:23.842Z,-2.40
2019-02-17T01:27:05.831Z,-2.50
2019-02-17T01:29:47.815Z,-2.50
2019-02-17T01:32:29.506Z,-2.50
2019-02-17T01:35:11.794Z,-2.50
2019-02-17T01:37:54.050Z,-2.50
2019-02-17T01:40:36.106Z,-2.50
2019-02-17T01:43:17.986Z,-2.60
2019-02-17T01:45:59.702Z,-2.60
2019-02-17T01:48:41.597Z,-2.60
2019-02-17T01:51:23.566Z,-2.60
2019-02-17T01:54:05.210Z,-2.60
2019-02-17T01:56:47.162Z,-2.60
2019-02-17T01:59:30.903Z,-2.70
2019-02-17T02:02:13.143Z,-2.70
2019-02-17T02:04:55.342Z,-2.70
2019-02-17T02:07:37.147Z,-2.70
2019-02-17T02:10:19.091Z,-2.70
2019-02-17T02:13:00.702Z,-2.70
2019-02-17T02:15:42.422Z,-2.70
2019-02-17T02:18:24.406Z,-2.80
2019-02-17T02:21:06.169Z,-2.70
2019-02-17T02:23:47.950Z,-2.80
2019-02-17T02:26:30.394Z,-2.80
2019-02-17T02:29:12.802Z,-2.80
2019-02-17T02:31:55.008Z,-2.80
2019-02-17T02:34:36.942Z,-2.80
2019-02-17T02:37:18.914Z,-2.80
2019-02-17T02:40:00.730Z,-2.80
2019-02-17T02:42:43.107Z,-2.80
2019-02-17T02:45:25.018Z,-2.90
2019-02-17T02:48:06.963Z,-2.90
2019-02-17T02:50:48.619Z,-3.00
2019-02-17T02:53:30.577Z,-2.90
2019-02-17T02:56:12.710Z,-3.00
2019-02-17T02:58:54.455Z,-3.10
2019-02-17T03:01:36.742Z,-3.10
2019-02-17T03:04:18.757Z,-3.10
2019-02-17T03:07:07.073Z,-3.00
2019-02-17T03:09:50.230Z,-3.10
2019-02-17T03:12:32.003Z,-3.10
2019-02-17T03:15:13.796Z,-3.10
2019-02-17T03:17:55.854Z,-3.10
2019-02-17T03:20:38.028Z,-3.10
2019-02-17T03:23:19.963Z,-3.10
2019-02-17T03:26:01.759Z,-3.20
2019-02-17T03:28:44.013Z,-3.20
2019-02-17T03:31:26.315Z,-3.20
2019-02-17T03:34:08.080Z,-3.30
2019-02-17T03:36:50.296Z,-3.30
2019-02-17T03:39:32.546Z,-3.30
2019-02-17T03:42:12.998Z,-3.30
2019-02-17T03:45:02.490Z,-3.30
2019-02-17T03:47:45.490Z,-3.30
2019-02-17T03:50:27.718Z,-3.30
2019-02-17T03:53:10.190Z,-3.40
2019-02-17T03:55:51.946Z,-3.40
2019-02-17T03:58:34.423Z,-3.50
2019-02-17T04:01:16.650Z,-3.50
2019-02-17T04:03:58.807Z,-3.50
2019-02-17T04:06:40.957Z,-3.50
2019-02-17T04:09:23.030Z,-3.50
2019-02-17T04:12:04.970Z,-3.50
2019-02-17T04:14:47.458Z,-3.50
2019-02-17T04:17:29.561Z,-3.60
2019-02-17T04:20:11.914Z,-3.60
2019-02-17T04:22:53.914Z,-3.70
2019-02-17T04:25:24.228Z,-3.70
2019-02-17T04:28:15.090Z,-3.60
2019-02-17T04:30:58.478Z,-3.60
2019-02-17T04:33:40.294Z,-3.70
2019-02-17T04:36:20.819Z,-3.70
2019-02-17T04:39:10.230Z,-3.70
2019-02-17T04:41:54.031Z,-3.70
2019-02-17T04:44:36.606Z,-3.80
2019-02-17T04:47:19.194Z,-3.80
2019-02-17T04:50:01.035Z,-3.70
2019-02-17T04:52:42.903Z,-3.80
2019-02-17T04:55:25.139Z,-3.80
2019-02-17T04:58:07.248Z,-3.80
2019-02-17T05:00:50.068Z,-3.70
2019-02-17T05:03:32.500Z,-3.70
2019-02-17T05:06:14.217Z,-3.70
2019-02-17T05:08:56.611Z,-3.70
2019-02-17T05:11:38.436Z,-3.80
2019-02-17T05:14:20.326Z,-3.80
2019-02-17T05:17:01.958Z,-3.70
2019-02-17T05:19:43.707Z,-3.80
2019-02-17T05:22:25.821Z,-3.80
2019-02-17T05:25:07.694Z,-3.80
2019-02-17T05:27:49.324Z,-3.70
2019-02-17T05:30:31.613Z,-3.80
2019-02-17T05:33:13.808Z,-3.80
2019-02-17T05:35:55.534Z,-3.80
2019-02-17T05:38:35.990Z,-3.80
2019-02-17T05:41:25.330Z,-3.80
2019-02-17T05:44:08.465Z,-3.90
2019-02-17T05:46:50.594Z,-3.90
2019-02-17T05:49:32.470Z,-3.80
2019-02-17T05:52:14.422Z,-3.90
2019-02-17T05:54:56.585Z,-3.90
2019-02-17T05:57:38.890Z,-3.90
2019-02-17T06:00:23.559Z,-3.90
2019-02-17T06:03:06.029Z,-3.90
2019-02-17T06:05:47.987Z,-3.90
2019-02-17T06:08:30.567Z,-3.90
2019-02-17T06:11:12.404Z,-3.90
2019-02-17T06:13:54.478Z,-4.00
2019-02-17T06:16:36.818Z,-4.00
2019-02-17T06:19:18.763Z,-4.00
2019-02-17T06:22:01.050Z,-4.00
2019-02-17T06:24:42.710Z,-4.00
2019-02-17T06:27:24.702Z,-3.70
2019-02-17T06:30:07.242Z,-3.30
2019-02-17T06:32:49.230Z,-2.80
2019-02-17T06:35:31.078Z,-2.40
2019-02-17T06:38:13.302Z,-1.90
2019-02-17T06:40:55.510Z,-1.50
2019-02-17T06:43:37.774Z,-1.00
2019-02-17T06:46:24.250Z,-0.70
2019-02-17T06:49:06.055Z,-0.30
2019-02-17T06:51:47.710Z,-0.10
2019-02-17T06:54:29.358Z,0.20
2019-02-17T06:57:15.659Z,0.40
2019-02-17T07:03:04.035Z,1.10
2019-02-17T07:06:10.934Z,1.30
2019-02-17T07:08:54.336Z,1.30
2019-02-17T07:11:36.426Z,1.80
2019-02-17T07:14:18.835Z,2.20
2019-02-17T07:17:00.902Z,2.30
2019-02-17T07:19:42.782Z,2.90
2019-02-17T07:22:25.175Z,3.00
2019-02-17T07:25:07.073Z,2.90
2019-02-17T07:27:48.799Z,3.10
2019-02-17T07:30:30.597Z,3.40
2019-02-17T07:33:13.030Z,3.60
2019-02-17T07:35:55.162Z,4.20
2019-02-17T07:38:36.810Z,4.20
2019-02-17T07:41:18.958Z,4.40
2019-02-17T07:44:00.803Z,4.50
2019-02-17T07:46:42.738Z,4.90
2019-02-17T07:49:24.839Z,5.30
2019-02-17T07:52:07.194Z,5.60
2019-02-17T07:54:48.912Z,5.60
2019-02-17T07:57:30.985Z,5.80
2019-02-17T08:00:13.134Z,6.20
2019-02-17T08:02:55.036Z,6.40
2019-02-17T08:05:37.190Z,6.60
2019-02-17T08:08:19.064Z,6.80
2019-02-17T08:11:04.085Z,7.00
2019-02-17T08:13:45.045Z,7.20
2019-02-17T08:16:27.397Z,7.30
2019-02-17T08:19:09.414Z,7.40
2019-02-17T08:21:51.339Z,7.10
2019-02-17T08:24:33.518Z,6.90
2019-02-17T08:27:15.650Z,6.80
2019-02-17T08:29:58.186Z,6.80
2019-02-17T08:32:39.880Z,7.20
2019-02-17T08:35:21.991Z,7.80
2019-02-17T08:38:03.989Z,8.00
2019-02-17T08:40:45.842Z,8.50
2019-02-17T08:43:28.349Z,8.70
2019-02-17T08:46:10.262Z,9.20
2019-02-17T08:48:51.985Z,9.20
2019-02-17T08:51:34.011Z,9.30
2019-02-17T08:54:15.794Z,9.20
2019-02-17T08:56:58.070Z,9.20
2019-02-17T09:03:02.178Z,9.50
2019-02-17T09:05:44.591Z,9.80
2019-02-17T09:08:26.965Z,9.80
2019-02-17T09:11:09.320Z,9.80
2019-02-17T09:13:51.726Z,9.80
2019-02-17T09:16:33.733Z,9.70
2019-02-17T09:19:15.664Z,9.80
2019-02-17T09:21:57.718Z,9.80
2019-02-17T09:24:39.538Z,10.00
2019-02-17T09:27:21.449Z,10.10
2019-02-17T09:30:03.786Z,10.20
2019-02-17T09:32:46.202Z,10.30
2019-02-17T09:35:28.260Z,10.30
2019-02-17T09:38:10.286Z,10.40
2019-02-17T09:40:52.282Z,10.40
2019-02-17T09:43:34.467Z,10.50
2019-02-17T09:46:16.110Z,10.60
2019-02-17T09:48:58.074Z,10.70
2019-02-17T09:51:40.238Z,10.70
2019-02-17T09:54:22.794Z,10.80
2019-02-17T09:57:03.260Z,11.00
2019-02-17T09:59:52.673Z,11.00
2019-02-17T10:02:36.338Z,11.00
2019-02-17T10:05:18.486Z,11.10
2019-02-17T10:08:00.739Z,11.10
2019-02-17T10:10:43.146Z,11.20
2019-02-17T10:13:25.268Z,11.30
2019-02-17T10:16:07.124Z,11.40
2019-02-17T10:18:49.427Z,11.50
2019-02-17T10:21:31.465Z,11.40
2019-02-17T10:24:13.310Z,11.50
2019-02-17T10:26:55.646Z,11.60
2019-02-17T10:29:37.299Z,11.70
2019-02-17T10:32:19.254Z,11.80
2019-02-17T10:35:00.938Z,11.80
2019-02-17T10:37:42.731Z,11.90
2019-02-17T10:40:24.598Z,12.00
2019-02-17T10:43:06.430Z,12.10
2019-02-17T10:45:48.397Z,12.20
2019-02-17T10:48:30.363Z,12.30
2019-02-17T10:51:12.270Z,12.30
2019-02-17T10:53:53.990Z,12.50
2019-02-17T10:56:35.794Z,12.60
2019-02-17T10:59:17.818Z,12.70
2019-02-17T11:02:00.555Z,12.70
2019-02-17T11:04:42.450Z,12.80
2019-02-17T11:07:24.302Z,12.90
2019-02-17T11:10:05.962Z,13.00
2019-02-17T11:12:48.274Z,13.10
2019-02-17T11:15:29.990Z,13.10
2019-02-17T11:18:12.356Z,13.20
2019-02-17T11:20:54.263Z,13.30
2019-02-17T11:23:36.435Z,13.40
2019-02-17T11:26:18.098Z,13.40
2019-02-17T11:29:00.246Z,13.50
2019-02-17T11:31:42.322Z,13.50
2019-02-17T11:34:24.577Z,13.60
2019-02-17T11:37:08.575Z,13.70
2019-02-17T11:39:50.462Z,13.90
2019-02-17T11:42:32.214Z,14.00
2019-02-17T11:45:14.826Z,14.10
2019-02-17T11:47:56.669Z,14.20
2019-02-17T11:50:38.514Z,14.30
2019-02-17T11:53:20.394Z,14.40
2019-02-17T11:56:02.614Z,14.50
2019-02-17T11:58:44.478Z,14.50
2019-02-17T12:01:26.474Z,14.50
2019-02-17T12:04:08.342Z,14.60
2019-02-17T12:06:50.040Z,14.70
2019-02-17T12:09:32.203Z,14.70
2019-02-17T12:12:14.218Z,14.70
2019-02-17T12:14:56.066Z,14.80
2019-02-17T12:17:38.510Z,14.80
2019-02-17T12:24:06.177Z,14.80
2019-02-17T12:27:07.094Z,14.90
2019-02-17T12:30:16.880Z,15.00
2019-02-17T12:33:00.076Z,15.00
2019-02-17T12:35:42.138Z,15.10
2019-02-17T12:38:23.742Z,15.10
2019-02-17T12:41:05.914Z,15.00
2019-02-17T12:43:47.552Z,15.00
2019-02-17T12:46:29.771Z,15.00
2019-02-17T12:49:12.331Z,15.00
2019-02-17T12:51:54.083Z,15.00
2019-02-17T12:54:36.228Z,15.00
2019-02-17T12:57:18.056Z,15.00
2019-02-17T12:59:59.942Z,15.00
2019-02-17T13:02:41.805Z,14.90
2019-02-17T13:05:24.114Z,14.90
2019-02-17T13:08:04.671Z,15.00
2019-02-17T13:10:47.078Z,14.90
2019-02-17T13:13:29.021Z,14.80
2019-02-17T13:16:11.824Z,14.70
2019-02-17T13:18:54.078Z,14.60
2019-02-17T13:21:35.794Z,14.50
2019-02-17T13:24:17.831Z,14.40
2019-02-17T13:27:00.010Z,14.40
2019-02-17T13:29:41.873Z,14.40
2019-02-17T13:32:23.918Z,14.40
2019-02-17T13:35:07.025Z,14.40
2019-02-17T13:37:48.834Z,14.40
2019-02-17T13:40:30.920Z,14.40
2019-02-17T13:43:12.645Z,14.30
2019-02-17T13:45:54.674Z,14.30
2019-02-17T13:48:36.474Z,14.30
2019-02-17T13:51:18.302Z,14.30
2019-02-17T13:54:00.775Z,14.20
2019-02-17T13:56:42.728Z,14.20
2019-02-17T13:59:25.167Z,14.10
2019-02-17T14:02:07.374Z,14.10
2019-02-17T14:04:49.153Z,14.10
2019-02-17T14:07:31.078Z,14.10
2019-02-17T14:10:13.002Z,14.00
2019-02-17T14:12:55.005Z,14.00
2019-02-17T14:15:37.292Z,13.90
2019-02-17T14:18:19.256Z,13.90
2019-02-17T14:21:01.102Z,13.70
2019-02-17T14:23:42.827Z,13.70
2019-02-17T14:26:24.961Z,13.70
2019-02-17T14:29:07.294Z,13.70
2019-02-17T14:31:49.646Z,13.60
2019-02-17T14:34:31.527Z,13.60
2019-02-17T14:37:13.674Z,13.60
2019-02-17T14:39:55.494Z,13.50
2019-02-17T14:42:37.495Z,13.40
2019-02-17T14:45:19.491Z,13.20
2019-02-17T14:48:01.843Z,13.20
2019-02-17T14:50:43.575Z,13.10
2019-02-17T14:53:25.554Z,13.00
2019-02-17T14:56:07.359Z,12.90
2019-02-17T14:58:49.230Z,12.80
2019-02-17T15:01:32.020Z,12.80
2019-02-17T15:04:13.888Z,12.80
2019-02-17T15:06:55.970Z,12.80
2019-02-17T15:09:38.024Z,12.70
2019-02-17T15:12:20.077Z,12.60
2019-02-17T15:15:02.199Z,12.40
2019-02-17T15:17:44.215Z,12.30
2019-02-17T15:20:26.915Z,12.20
2019-02-17T15:23:09.227Z,12.00
2019-02-17T15:25:51.098Z,11.90
2019-02-17T15:28:33.499Z,11.90
2019-02-17T15:31:15.447Z,11.80
2019-02-17T15:33:57.274Z,11.90
2019-02-17T15:36:39.215Z,11.80
2019-02-17T15:39:21.198Z,11.70
2019-02-17T15:42:03.263Z,11.60
2019-02-17T15:44:45.383Z,11.50
2019-02-17T15:47:27.463Z,11.40
2019-02-17T15:50:09.298Z,11.30
2019-02-17T15:52:51.388Z,11.10
2019-02-17T15:55:31.889Z,11.00
2019-02-17T15:58:21.302Z,10.70
2019-02-17T16:01:05.314Z,10.50
2019-02-17T16:03:47.031Z,10.20
2019-02-17T16:06:29.417Z,10.00
2019-02-17T16:09:09.798Z,9.70
2019-02-17T16:11:51.999Z,9.50
2019-02-17T16:14:34.550Z,9.30
2019-02-17T16:17:16.403Z,9.00
2019-02-17T16:19:58.249Z,8.80
2019-02-17T16:22:40.334Z,8.60
2019-02-17T16:25:22.211Z,8.40
2019-02-17T16:28:04.538Z,8.30
2019-02-17T16:30:46.552Z,8.10
2019-02-17T16:33:28.266Z,7.90
2019-02-17T16:36:10.267Z,7.70
2019-02-17T16:38:52.078Z,7.60
2019-02-17T16:41:34.414Z,7.40
2019-02-17T16:44:16.434Z,7.20
2019-02-17T16:46:58.038Z,7.10
2019-02-17T16:49:40.221Z,7.10
2019-02-17T16:52:10.637Z,7.20
2019-02-17T16:55:01.474Z,7.20
2019-02-17T16:57:43.539Z,7.10
2019-02-17T17:00:25.610Z,6.80
2019-02-17T17:03:07.702Z,6.60
2019-02-17T17:05:49.874Z,6.40
2019-02-17T17:08:31.984Z,6.20
2019-02-17T17:11:14.270Z,6.00
2019-02-17T17:13:57.071Z,5.80
2019-02-17T17:16:38.886Z,5.60
2019-02-17T17:19:21.430Z,5.50
2019-02-17T17:22:03.943Z,5.40
2019-02-17T17:24:46.206Z,5.40
2019-02-17T17:27:28.438Z,5.30
2019-02-17T17:29:59.098Z,5.20
2019-02-17T17:32:50.061Z,5.20
2019-02-17T17:35:33.339Z,5.10
2019-02-17T17:38:15.330Z,5.00
2019-02-17T17:40:57.214Z,4.90
2019-02-17T17:43:38.931Z,4.80
2019-02-17T17:46:21.258Z,4.70
2019-02-17T17:49:03.343Z,4.50
2019-02-17T17:51:45.418Z,4.50
2019-02-17T17:54:28.070Z,4.40
2019-02-17T17:57:09.819Z,4.30
2019-02-17T17:59:51.663Z,4.10
2019-02-17T18:02:33.979Z,4.00
2019-02-17T18:05:15.906Z,3.90
2019-02-17T18:07:57.712Z,3.70
2019-02-17T18:10:40.022Z,3.70
2019-02-17T18:13:22.135Z,3.60
2019-02-17T18:16:04.285Z,3.50
2019-02-17T18:18:46.467Z,3.50
2019-02-17T18:21:28.574Z,3.40
2019-02-17T18:24:10.526Z,3.30
2019-02-17T18:26:52.447Z,3.20
2019-02-17T18:29:34.201Z,3.10
2019-02-17T18:32:16.269Z,3.10
2019-02-17T18:34:58.298Z,3.00
2019-02-17T18:37:40.574Z,2.90
2019-02-17T18:40:22.765Z,2.80
2019-02-17T18:43:04.703Z,2.80
2019-02-17T18:45:47.078Z,2.70
2019-02-17T18:48:29.726Z,2.80
2019-02-17T18:51:13.043Z,3.30
2019-02-17T18:53:53.622Z,3.70
2019-02-17T18:56:43.094Z,4.10
2019-02-17T18:59:27.044Z,4.20
2019-02-17T19:02:08.902Z,4.10
2019-02-17T19:04:51.867Z,3.80
2019-02-17T19:07:34.490Z,3.50
2019-02-17T19:10:16.994Z,3.20
2019-02-17T19:12:59.657Z,2.90
2019-02-17T19:15:41.573Z,3.10
2019-02-17T19:18:23.495Z,3.10
2019-02-17T19:21:05.107Z,3.10
2019-02-17T19:23:47.476Z,3.20
2019-02-17T19:26:29.756Z,3.00
2019-02-17T19:29:11.456Z,2.70
2019-02-17T19:31:53.258Z,2.50
2019-02-17T19:34:35.259Z,2.30
2019-02-17T19:37:17.478Z,2.10
2019-02-17T19:39:59.472Z,1.90
2019-02-17T19:42:41.514Z,1.80
2019-02-17T19:45:23.766Z,1.70
2019-02-17T19:48:05.590Z,1.60
2019-02-17T19:50:47.618Z,1.60
2019-02-17T19:53:30.066Z,1.50
2019-02-17T19:56:12.928Z,1.40
2019-02-17T19:58:55.337Z,1.30
2019-02-17T20:01:37.813Z,1.30
2019-02-17T20:04:31.931Z,1.20
2019-02-17T20:07:15.961Z,1.10
2019-02-17T20:09:58.024Z,1.10
2019-02-17T20:12:39.926Z,1.10
2019-02-17T20:15:23.258Z,1.10
2019-02-17T20:18:05.394Z,1.00
2019-02-17T20:20:47.970Z,1.10
2019-02-17T20:23:30.614Z,1.40
2019-02-17T20:26:12.769Z,1.60
2019-02-17T20:28:57.231Z,1.50
2019-02-17T20:31:38.471Z,1.30
2019-02-17T20:34:20.989Z,1.10
2019-02-17T20:37:02.845Z,1.00
2019-02-17T20:39:45.113Z,1.20
2019-02-17T20:42:27.578Z,1.20
2019-02-17T20:45:09.662Z,1.00
2019-02-17T20:47:51.596Z,0.90
2019-02-17T20:50:33.533Z,0.70
2019-02-17T20:53:15.407Z,0.60
2019-02-17T20:55:56.904Z,0.50
2019-02-17T20:58:46.394Z,0.40
2019-02-17T21:01:29.871Z,0.40
2019-02-17T21:04:11.570Z,0.30
2019-02-17T21:06:53.234Z,0.30
2019-02-17T21:09:35.508Z,0.30
2019-02-17T21:12:18.430Z,0.30
2019-02-17T21:15:01.212Z,0.30
2019-02-17T21:17:43.193Z,0.30
2019-02-17T21:20:24.975Z,0.10
2019-02-17T21:22:55.371Z,0.10
2019-02-17T21:25:44.779Z,0.00
2019-02-17T21:28:35.618Z,-0.10
2019-02-17T21:31:26.478Z,-0.20
2019-02-17T21:36:59.718Z,-0.20
2019-02-17T21:39:50.528Z,-0.20
2019-02-17T21:42:33.602Z,-0.20
2019-02-17T21:45:15.683Z,-0.20
2019-02-17T21:47:57.671Z,-0.30
2019-02-17T21:50:28.030Z,-0.30
2019-02-17T21:53:20.792Z,-0.40
2019-02-17T21:56:07.972Z,-0.40
2019-02-17T21:58:50.118Z,-0.40
2019-02-17T22:01:20.423Z,-0.40
2019-02-17T22:04:09.826Z,-0.40
2019-02-17T22:06:53.566Z,-0.50
2019-02-17T22:09:35.396Z,-0.50
2019-02-17T22:12:17.230Z,-0.50
2019-02-17T22:14:58.938Z,-0.50
2019-02-17T22:17:40.603Z,-0.60
2019-02-17T22:20:22.642Z,-0.60
2019-02-17T22:23:04.623Z,-0.70
2019-02-17T22:25:46.588Z,-0.80
2019-02-17T22:28:28.877Z,-0.80
2019-02-17T22:31:11.154Z,-0.80
2019-02-17T22:33:53.014Z,-0.80
2019-02-17T22:36:43.529Z,-0.80
2019-02-17T22:39:18.637Z,-0.80
2019-02-17T22:41:49.003Z,-0.80
2019-02-17T22:44:39.898Z,-0.80
2019-02-17T22:47:11.714Z,-0.70
2019-02-17T22:50:01.162Z,-0.70
2019-02-17T22:52:41.737Z,-0.80
2019-02-17T22:55:31.155Z,-0.80
2019-02-17T22:58:01.537Z,-0.80
2019-02-17T23:01:11.470Z,-0.90
2019-02-17T23:03:54.823Z,-0.90
2019-02-17T23:06:36.947Z,-0.90
2019-02-17T23:09:46.812Z,-1.00
2019-02-17T23:15:31.850Z,-1.10
2019-02-17T23:18:02.174Z,-1.10
2019-02-17T23:20:52.974Z,-1.10
2019-02-17T23:23:36.079Z,-0.80
2019-02-17T23:26:18.101Z,-0.60
2019-02-17T23:29:00.005Z,-0.60
2019-02-17T23:31:41.852Z,-0.60
2019-02-17T23:34:22.332Z,-0.60
2019-02-17T23:37:11.743Z,-0.70
2019-02-17T23:39:55.507Z,-0.80
2019-02-17T23:42:37.466Z,-1.00
2019-02-17T23:45:19.250Z,-1.10
2019-02-17T23:48:00.871Z,-1.20
2019-02-17T23:50:42.971Z,-1.20
2019-02-17T23:53:24.806Z,-1.30
2019-02-17T23:56:06.778Z,-1.30
2019-02-17T23:58:48.882Z,-1.30
